sensor_id;sensor_type;location;lat;lon;timestamp;pressure;altitude;pressure_sealevel;temperature;humidity
59435;BME280;45241;49.768;8.636;2023-01-31T00:00:10;101112.19;;;5.73;93.76
59435;BME280;45241;49.768;8.636;2023-01-31T00:02:36;101116.78;;;5.61;93.38
59435;BME280;45241;49.768;8.636;2023-01-31T00:05:01;101122.22;;;5.50;95.36
59435;BME280;45241;49.768;8.636;2023-01-31T00:07:26;101125.28;;;5.45;95.75
59435;BME280;45241;49.768;8.636;2023-01-31T00:09:52;101128.94;;;5.64;94.56
59435;BME280;45241;49.768;8.636;2023-01-31T00:12:17;101121.63;;;5.37;95.67
59435;BME280;45241;49.768;8.636;2023-01-31T00:14:42;101124.56;;;5.34;96.47
59435;BME280;45241;49.768;8.636;2023-01-31T00:17:07;101118.13;;;5.36;96.17
59435;BME280;45241;49.768;8.636;2023-01-31T00:19:33;101122.22;;;5.50;95.36
59435;BME280;45241;49.768;8.636;2023-01-31T00:21:58;101114.41;;;5.58;94.72
59435;BME280;45241;49.768;8.636;2023-01-31T00:24:23;101110.31;;;5.44;95.71
59435;BME280;45241;49.768;8.636;2023-01-31T00:26:49;101116.03;;;5.30;96.03
59435;BME280;45241;49.768;8.636;2023-01-31T00:29:23;101113.66;;;5.27;96.74
59435;BME280;45241;49.768;8.636;2023-01-31T00:31:49;101116.03;;;5.30;96.45
59435;BME280;45241;49.768;8.636;2023-01-31T00:34:15;101125.53;;;5.33;97.23
59435;BME280;45241;49.768;8.636;2023-01-31T00:36:41;101114.34;;;5.39;96.85
59435;BME280;45241;49.768;8.636;2023-01-31T00:39:07;101122.72;;;5.24;97.36
59435;BME280;45241;49.768;8.636;2023-01-31T00:41:34;101114.78;;;5.44;96.72
59435;BME280;45241;49.768;8.636;2023-01-31T00:44:00;101116.13;;;5.19;97.55
59435;BME280;45241;49.768;8.636;2023-01-31T00:46:26;101106.38;;;5.39;97.28
59435;BME280;45241;49.768;8.636;2023-01-31T00:48:52;101110.59;;;5.41;97.13
59435;BME280;45241;49.768;8.636;2023-01-31T00:51:18;101118.22;;;5.25;97.80
59435;BME280;45241;49.768;8.636;2023-01-31T00:53:44;101112.66;;;5.28;97.79
59435;BME280;45241;49.768;8.636;2023-01-31T00:56:15;101112.41;;;5.41;96.82
59435;BME280;45241;49.768;8.636;2023-01-31T00:58:41;101107.09;;;5.50;96.19
59435;BME280;45241;49.768;8.636;2023-01-31T01:01:12;101112.41;;;5.50;95.21
59435;BME280;45241;49.768;8.636;2023-01-31T01:03:38;101112.41;;;5.41;95.81
59435;BME280;45241;49.768;8.636;2023-01-31T01:06:05;101112.97;;;5.44;95.17
59435;BME280;45241;49.768;8.636;2023-01-31T01:08:32;101123.25;;;5.18;96.26
59435;BME280;45241;49.768;8.636;2023-01-31T01:11:04;101112.53;;;5.30;96.81
59435;BME280;45241;49.768;8.636;2023-01-31T01:13:30;101113.66;;;5.37;96.73
59435;BME280;45241;49.768;8.636;2023-01-31T01:15:55;101123.28;;;5.28;96.37
59435;BME280;45241;49.768;8.636;2023-01-31T01:18:20;101120.09;;;5.34;96.03
59435;BME280;45241;49.768;8.636;2023-01-31T01:20:45;101124.63;;;5.53;95.29
59435;BME280;45241;49.768;8.636;2023-01-31T01:23:11;101134.16;;;5.15;96.18
59435;BME280;45241;49.768;8.636;2023-01-31T01:25:43;101136.38;;;5.10;96.28
59435;BME280;45241;49.768;8.636;2023-01-31T01:28:09;101135.25;;;5.13;96.50
59435;BME280;45241;49.768;8.636;2023-01-31T01:30:36;101137.81;;;5.24;95.60
59435;BME280;45241;49.768;8.636;2023-01-31T01:33:02;101142.84;;;5.17;96.85
59435;BME280;45241;49.768;8.636;2023-01-31T01:35:27;101140.28;;;5.06;95.61
59435;BME280;45241;49.768;8.636;2023-01-31T01:37:52;101151.44;;;5.00;96.53
59435;BME280;45241;49.768;8.636;2023-01-31T01:40:18;101150.47;;;5.01;98.33
59435;BME280;45241;49.768;8.636;2023-01-31T01:42:43;101147.09;;;5.30;96.72
59435;BME280;45241;49.768;8.636;2023-01-31T01:45:12;101148.88;;;4.89;97.03
59435;BME280;45241;49.768;8.636;2023-01-31T01:47:48;101153.38;;;5.29;95.51
59435;BME280;45241;49.768;8.636;2023-01-31T01:50:27;101149.84;;;4.88;97.64
59435;BME280;45241;49.768;8.636;2023-01-31T01:53:05;101151.91;;;4.84;98.13
59435;BME280;45241;49.768;8.636;2023-01-31T01:55:38;101156.00;;;5.19;96.17
59435;BME280;45241;49.768;8.636;2023-01-31T01:58:15;101157.53;;;5.21;95.84
59435;BME280;45241;49.768;8.636;2023-01-31T02:00:44;101154.19;;;4.89;96.72
59435;BME280;45241;49.768;8.636;2023-01-31T02:03:09;101154.81;;;5.02;95.90
59435;BME280;45241;49.768;8.636;2023-01-31T02:05:46;101155.69;;;5.12;95.59
59435;BME280;45241;49.768;8.636;2023-01-31T02:08:14;101152.53;;;4.98;96.66
59435;BME280;45241;49.768;8.636;2023-01-31T02:10:52;101157.69;;;4.89;96.50
59435;BME280;45241;49.768;8.636;2023-01-31T02:13:20;101159.66;;;4.97;96.07
59435;BME280;45241;49.768;8.636;2023-01-31T02:15:46;101159.66;;;4.97;95.42
59435;BME280;45241;49.768;8.636;2023-01-31T02:18:12;101162.03;;;4.90;95.56
59435;BME280;45241;49.768;8.636;2023-01-31T02:22:01;101159.25;;;4.71;96.87
59435;BME280;45241;49.768;8.636;2023-01-31T02:43:43;101155.22;;;5.38;92.43
59435;BME280;45241;49.768;8.636;2023-01-31T02:49:53;101151.69;;;4.97;92.21
59435;BME280;45241;49.768;8.636;2023-01-31T02:55:13;101151.00;;;4.95;91.04
59435;BME280;45241;49.768;8.636;2023-01-31T02:58:01;101145.78;;;5.24;90.62
59435;BME280;45241;49.768;8.636;2023-01-31T03:00:31;101141.03;;;5.18;90.04
59435;BME280;45241;49.768;8.636;2023-01-31T03:02:57;101136.41;;;5.20;89.94
59435;BME280;45241;49.768;8.636;2023-01-31T03:05:22;101135.75;;;4.97;90.28
59435;BME280;45241;49.768;8.636;2023-01-31T03:07:59;101141.91;;;4.67;91.14
59435;BME280;45241;49.768;8.636;2023-01-31T03:15:37;101157.44;;;5.33;89.81
59435;BME280;45241;49.768;8.636;2023-01-31T03:18:29;101165.41;;;4.72;89.82
59435;BME280;45241;49.768;8.636;2023-01-31T03:21:01;101162.88;;;4.91;88.64
59435;BME280;45241;49.768;8.636;2023-01-31T03:23:30;101158.66;;;4.88;88.46
59435;BME280;45241;49.768;8.636;2023-01-31T03:25:58;101160.50;;;4.98;88.63
59435;BME280;45241;49.768;8.636;2023-01-31T03:28:29;101167.06;;;5.24;88.07
59435;BME280;45241;49.768;8.636;2023-01-31T03:31:00;101165.47;;;5.12;88.29
59435;BME280;45241;49.768;8.636;2023-01-31T03:33:35;101179.25;;;4.96;88.92
59435;BME280;45241;49.768;8.636;2023-01-31T03:36:14;101175.19;;;4.92;89.61
59435;BME280;45241;49.768;8.636;2023-01-31T03:38:49;101179.28;;;4.75;90.00
59435;BME280;45241;49.768;8.636;2023-01-31T03:46:46;101178.88;;;5.01;89.49
59435;BME280;45241;49.768;8.636;2023-01-31T03:49:14;101191.81;;;4.94;89.11
59435;BME280;45241;49.768;8.636;2023-01-31T03:51:46;101183.88;;;4.52;89.81
59435;BME280;45241;49.768;8.636;2023-01-31T03:54:18;101184.63;;;4.85;89.53
59435;BME280;45241;49.768;8.636;2023-01-31T03:56:51;101185.47;;;4.85;89.07
59435;BME280;45241;49.768;8.636;2023-01-31T03:59:21;101181.28;;;4.83;88.52
59435;BME280;45241;49.768;8.636;2023-01-31T04:01:48;101184.66;;;4.43;89.15
59435;BME280;45241;49.768;8.636;2023-01-31T04:04:35;101177.28;;;4.68;88.69
59435;BME280;45241;49.768;8.636;2023-01-31T04:07:04;101182.25;;;4.82;88.13
59435;BME280;45241;49.768;8.636;2023-01-31T04:09:30;101186.16;;;5.08;87.63
59435;BME280;45241;49.768;8.636;2023-01-31T04:11:59;101188.63;;;5.00;87.28
59435;BME280;45241;49.768;8.636;2023-01-31T04:14:26;101192.09;;;4.91;87.33
59435;BME280;45241;49.768;8.636;2023-01-31T04:16:51;101193.56;;;4.84;87.44
59435;BME280;45241;49.768;8.636;2023-01-31T04:19:17;101195.81;;;4.79;87.46
59435;BME280;45241;49.768;8.636;2023-01-31T04:21:42;101196.50;;;4.81;87.23
59435;BME280;45241;49.768;8.636;2023-01-31T04:24:07;101195.31;;;4.74;87.47
59435;BME280;45241;49.768;8.636;2023-01-31T04:26:34;101193.94;;;4.49;89.12
59435;BME280;45241;49.768;8.636;2023-01-31T04:28:59;101195.47;;;3.98;89.59
59435;BME280;45241;49.768;8.636;2023-01-31T04:31:24;101196.13;;;4.64;89.35
59435;BME280;45241;49.768;8.636;2023-01-31T04:33:50;101186.72;;;4.60;88.63
59435;BME280;45241;49.768;8.636;2023-01-31T04:36:15;101179.69;;;4.50;88.12
59435;BME280;45241;49.768;8.636;2023-01-31T04:38:40;101178.72;;;4.51;88.12
59435;BME280;45241;49.768;8.636;2023-01-31T04:41:06;101177.88;;;4.50;87.77
59435;BME280;45241;49.768;8.636;2023-01-31T04:43:32;101173.97;;;4.54;87.38
59435;BME280;45241;49.768;8.636;2023-01-31T04:45:57;101179.59;;;4.61;87.82
59435;BME280;45241;49.768;8.636;2023-01-31T04:48:22;101188.22;;;4.53;87.22
59435;BME280;45241;49.768;8.636;2023-01-31T04:50:47;101178.00;;;4.49;87.17
59435;BME280;45241;49.768;8.636;2023-01-31T04:53:13;101174.09;;;4.32;87.91
59435;BME280;45241;49.768;8.636;2023-01-31T04:55:39;101168.19;;;3.64;88.04
59435;BME280;45241;49.768;8.636;2023-01-31T04:58:04;101171.75;;;4.18;89.69
59435;BME280;45241;49.768;8.636;2023-01-31T05:00:30;101171.34;;;4.22;88.91
59435;BME280;45241;49.768;8.636;2023-01-31T05:02:55;101160.44;;;3.72;90.99
59435;BME280;45241;49.768;8.636;2023-01-31T05:05:20;101168.13;;;2.99;94.12
59435;BME280;45241;49.768;8.636;2023-01-31T05:07:46;101160.59;;;3.71;93.52
59435;BME280;45241;49.768;8.636;2023-01-31T05:10:11;101160.31;;;4.06;90.52
59435;BME280;45241;49.768;8.636;2023-01-31T05:12:37;101157.06;;;4.14;89.93
59435;BME280;45241;49.768;8.636;2023-01-31T05:15:04;101154.53;;;4.12;88.92
59435;BME280;45241;49.768;8.636;2023-01-31T05:17:32;101154.03;;;3.86;89.83
59435;BME280;45241;49.768;8.636;2023-01-31T05:19:57;101146.22;;;4.05;89.25
59435;BME280;45241;49.768;8.636;2023-01-31T05:22:23;101146.47;;;3.70;89.51
59435;BME280;45241;49.768;8.636;2023-01-31T05:24:49;101152.22;;;4.07;89.21
59435;BME280;45241;49.768;8.636;2023-01-31T05:27:15;101158.34;;;4.19;89.06
59435;BME280;45241;49.768;8.636;2023-01-31T05:29:40;101150.38;;;4.19;89.06
59435;BME280;45241;49.768;8.636;2023-01-31T05:32:06;101153.72;;;4.00;89.31
59435;BME280;45241;49.768;8.636;2023-01-31T05:34:32;101161.78;;;4.10;90.18
59435;BME280;45241;49.768;8.636;2023-01-31T05:36:58;101149.28;;;4.22;89.48
59435;BME280;45241;49.768;8.636;2023-01-31T05:39:23;101148.06;;;4.26;89.67
59435;BME280;45241;49.768;8.636;2023-01-31T05:41:49;101136.25;;;4.19;89.37
59435;BME280;45241;49.768;8.636;2023-01-31T05:44:14;101133.94;;;4.25;90.13
59435;BME280;45241;49.768;8.636;2023-01-31T05:46:40;101129.16;;;4.19;89.82
59435;BME280;45241;49.768;8.636;2023-01-31T05:49:05;101130.56;;;4.02;91.68
59435;BME280;45241;49.768;8.636;2023-01-31T05:51:31;101135.63;;;4.26;90.57
59435;BME280;45241;49.768;8.636;2023-01-31T05:53:57;101137.81;;;4.21;90.51
59435;BME280;45241;49.768;8.636;2023-01-31T05:56:22;101147.59;;;4.21;90.29
59435;BME280;45241;49.768;8.636;2023-01-31T05:58:48;101144.38;;;3.85;92.37
59435;BME280;45241;49.768;8.636;2023-01-31T06:01:19;101144.56;;;3.93;91.84
59435;BME280;45241;49.768;8.636;2023-01-31T06:03:45;101147.75;;;3.87;91.55
59435;BME280;45241;49.768;8.636;2023-01-31T06:06:11;101147.25;;;3.82;93.03
59435;BME280;45241;49.768;8.636;2023-01-31T06:08:36;101144.16;;;3.77;93.44
59435;BME280;45241;49.768;8.636;2023-01-31T06:11:02;101144.50;;;4.16;91.67
59435;BME280;45241;49.768;8.636;2023-01-31T06:13:31;101135.50;;;3.96;91.21
59435;BME280;45241;49.768;8.636;2023-01-31T06:15:56;101148.31;;;3.91;92.47
59435;BME280;45241;49.768;8.636;2023-01-31T06:18:22;101153.69;;;4.12;91.75
59435;BME280;45241;49.768;8.636;2023-01-31T06:20:47;101148.47;;;3.89;93.26
59435;BME280;45241;49.768;8.636;2023-01-31T06:23:12;101154.13;;;4.17;92.58
59435;BME280;45241;49.768;8.636;2023-01-31T06:25:38;101140.78;;;4.07;92.57
59435;BME280;45241;49.768;8.636;2023-01-31T06:28:03;101139.44;;;4.13;93.15
59435;BME280;45241;49.768;8.636;2023-01-31T06:30:30;101131.13;;;4.06;93.67
59435;BME280;45241;49.768;8.636;2023-01-31T06:32:58;101143.56;;;4.05;93.89
59435;BME280;45241;49.768;8.636;2023-01-31T06:35:23;101148.38;;;3.80;95.51
59435;BME280;45241;49.768;8.636;2023-01-31T06:37:49;101143.41;;;3.86;93.83
59435;BME280;45241;49.768;8.636;2023-01-31T06:40:14;101140.34;;;4.02;93.67
59435;BME280;45241;49.768;8.636;2023-01-31T06:42:39;101140.06;;;3.84;95.20
59435;BME280;45241;49.768;8.636;2023-01-31T06:45:05;101133.22;;;3.70;96.40
59435;BME280;45241;49.768;8.636;2023-01-31T06:47:30;101134.97;;;3.81;95.62
59435;BME280;45241;49.768;8.636;2023-01-31T06:49:55;101133.28;;;3.80;95.41
59435;BME280;45241;49.768;8.636;2023-01-31T06:52:21;101132.13;;;3.73;95.56
59435;BME280;45241;49.768;8.636;2023-01-31T06:54:46;101131.75;;;3.66;95.87
59435;BME280;45241;49.768;8.636;2023-01-31T06:57:11;101133.69;;;3.64;96.85
59435;BME280;45241;49.768;8.636;2023-01-31T06:59:37;101141.66;;;3.96;95.54
59435;BME280;45241;49.768;8.636;2023-01-31T07:02:02;101142.22;;;3.79;96.70
59435;BME280;45241;49.768;8.636;2023-01-31T07:04:27;101147.41;;;3.69;96.54
59435;BME280;45241;49.768;8.636;2023-01-31T07:06:52;101139.22;;;3.84;96.65
59435;BME280;45241;49.768;8.636;2023-01-31T07:09:18;101148.94;;;3.83;96.14
59435;BME280;45241;49.768;8.636;2023-01-31T07:11:43;101148.38;;;3.68;97.14
59435;BME280;45241;49.768;8.636;2023-01-31T07:14:08;101156.69;;;3.75;97.28
59435;BME280;45241;49.768;8.636;2023-01-31T07:16:34;101162.94;;;3.85;95.54
59435;BME280;45241;49.768;8.636;2023-01-31T07:19:01;101168.16;;;3.75;96.65
59435;BME280;45241;49.768;8.636;2023-01-31T07:21:27;101176.94;;;3.76;96.51
59435;BME280;45241;49.768;8.636;2023-01-31T07:23:53;101173.47;;;3.75;96.00
59435;BME280;45241;49.768;8.636;2023-01-31T07:26:19;101183.00;;;3.67;97.12
59435;BME280;45241;49.768;8.636;2023-01-31T07:28:44;101184.31;;;3.72;97.56
59435;BME280;45241;49.768;8.636;2023-01-31T07:31:11;101194.22;;;3.70;97.39
59435;BME280;45241;49.768;8.636;2023-01-31T07:33:37;101198.44;;;3.62;96.87
59435;BME280;45241;49.768;8.636;2023-01-31T07:36:04;101210.03;;;3.50;98.96
59435;BME280;45241;49.768;8.636;2023-01-31T07:38:31;101204.47;;;3.41;98.62
59435;BME280;45241;49.768;8.636;2023-01-31T07:41:01;101207.63;;;3.58;98.30
59435;BME280;45241;49.768;8.636;2023-01-31T07:43:27;101186.00;;;3.73;97.42
59435;BME280;45241;49.768;8.636;2023-01-31T07:45:53;101203.88;;;3.38;99.03
59435;BME280;45241;49.768;8.636;2023-01-31T07:48:19;101209.19;;;3.38;99.36
59435;BME280;45241;49.768;8.636;2023-01-31T07:50:51;101209.19;;;3.38;100.00
59435;BME280;45241;49.768;8.636;2023-01-31T07:53:18;101205.69;;;3.37;99.66
59435;BME280;45241;49.768;8.636;2023-01-31T07:55:44;101208.09;;;3.40;99.50
59435;BME280;45241;49.768;8.636;2023-01-31T07:58:12;101211.25;;;3.23;100.00
59435;BME280;45241;49.768;8.636;2023-01-31T08:00:39;101212.41;;;3.53;100.00
59435;BME280;45241;49.768;8.636;2023-01-31T08:03:25;101231.94;;;3.63;98.79
59435;BME280;45241;49.768;8.636;2023-01-31T08:06:01;101233.03;;;3.49;98.69
59435;BME280;45241;49.768;8.636;2023-01-31T08:08:27;101236.16;;;3.54;99.12
59435;BME280;45241;49.768;8.636;2023-01-31T08:10:52;101235.06;;;3.57;99.56
59435;BME280;45241;49.768;8.636;2023-01-31T08:13:17;101230.84;;;3.65;98.75
59435;BME280;45241;49.768;8.636;2023-01-31T08:15:43;101232.66;;;3.42;99.71
59435;BME280;45241;49.768;8.636;2023-01-31T08:18:08;101229.53;;;3.71;98.18
59435;BME280;45241;49.768;8.636;2023-01-31T08:20:33;101220.38;;;3.53;98.16
59435;BME280;45241;49.768;8.636;2023-01-31T08:23:02;101217.25;;;3.59;99.13
59435;BME280;45241;49.768;8.636;2023-01-31T08:25:27;101223.25;;;3.72;98.09
59435;BME280;45241;49.768;8.636;2023-01-31T08:27:58;101230.84;;;3.65;97.96
59435;BME280;45241;49.768;8.636;2023-01-31T08:30:24;101222.06;;;3.54;99.05
59435;BME280;45241;49.768;8.636;2023-01-31T08:32:49;101226.38;;;3.66;98.35
59435;BME280;45241;49.768;8.636;2023-01-31T08:35:14;101216.38;;;3.69;98.48
59435;BME280;45241;49.768;8.636;2023-01-31T08:37:40;101229.88;;;3.66;97.91
59435;BME280;45241;49.768;8.636;2023-01-31T08:40:06;101236.25;;;3.75;95.93
59435;BME280;45241;49.768;8.636;2023-01-31T08:42:31;101226.59;;;3.85;95.11
59435;BME280;45241;49.768;8.636;2023-01-31T08:44:56;101223.72;;;3.77;96.19
59435;BME280;45241;49.768;8.636;2023-01-31T08:47:22;101214.06;;;3.87;95.79
59435;BME280;45241;49.768;8.636;2023-01-31T08:49:47;101221.16;;;3.98;94.56
59435;BME280;45241;49.768;8.636;2023-01-31T08:52:12;101217.75;;;3.96;95.23
59435;BME280;45241;49.768;8.636;2023-01-31T08:54:37;101207.97;;;3.96;94.01
59435;BME280;45241;49.768;8.636;2023-01-31T08:57:03;101215.75;;;3.77;95.31
59435;BME280;45241;49.768;8.636;2023-01-31T08:59:28;101218.88;;;3.82;95.74
59435;BME280;45241;49.768;8.636;2023-01-31T09:01:54;101220.56;;;3.83;96.89
59435;BME280;45241;49.768;8.636;2023-01-31T09:04:19;101227.44;;;3.97;96.38
59435;BME280;45241;49.768;8.636;2023-01-31T09:06:44;101228.97;;;3.99;95.65
59435;BME280;45241;49.768;8.636;2023-01-31T09:09:09;101231.59;;;4.11;94.57
59435;BME280;45241;49.768;8.636;2023-01-31T09:11:35;101229.00;;;3.88;96.46
59435;BME280;45241;49.768;8.636;2023-01-31T09:14:01;101219.78;;;4.03;95.45
59435;BME280;45241;49.768;8.636;2023-01-31T09:16:26;101224.63;;;4.10;96.44
59435;BME280;45241;49.768;8.636;2023-01-31T09:18:52;101215.91;;;4.07;95.85
59435;BME280;45241;49.768;8.636;2023-01-31T09:21:20;101205.75;;;4.24;96.34
59435;BME280;45241;49.768;8.636;2023-01-31T09:23:46;101205.22;;;3.98;96.77
59435;BME280;45241;49.768;8.636;2023-01-31T09:26:14;101200.94;;;4.18;95.95
59435;BME280;45241;49.768;8.636;2023-01-31T09:28:40;101198.09;;;4.10;96.00
59435;BME280;45241;49.768;8.636;2023-01-31T09:31:09;101192.47;;;4.24;95.63
59435;BME280;45241;49.768;8.636;2023-01-31T09:33:35;101198.81;;;4.32;96.48
59435;BME280;45241;49.768;8.636;2023-01-31T09:36:06;101195.19;;;4.33;95.11
59435;BME280;45241;49.768;8.636;2023-01-31T09:38:32;101194.44;;;4.43;94.59
59435;BME280;45241;49.768;8.636;2023-01-31T09:41:00;101194.56;;;4.41;94.50
59435;BME280;45241;49.768;8.636;2023-01-31T09:43:39;101198.16;;;4.19;95.03
59435;BME280;45241;49.768;8.636;2023-01-31T09:46:12;101208.09;;;4.38;95.04
59435;BME280;45241;49.768;8.636;2023-01-31T09:48:42;101208.41;;;4.45;94.56
59435;BME280;45241;49.768;8.636;2023-01-31T09:51:09;101206.75;;;4.64;94.48
59435;BME280;45241;49.768;8.636;2023-01-31T09:53:38;101207.91;;;4.51;95.23
59435;BME280;45241;49.768;8.636;2023-01-31T09:58:41;101217.03;;;4.58;96.01
59435;BME280;45241;49.768;8.636;2023-01-31T10:06:35;101209.38;;;4.44;96.29
59435;BME280;45241;49.768;8.636;2023-01-31T10:09:34;101204.22;;;4.63;97.11
59435;BME280;45241;49.768;8.636;2023-01-31T10:12:14;101192.97;;;4.50;97.75
59435;BME280;45241;49.768;8.636;2023-01-31T10:14:44;101177.47;;;4.76;96.36
59435;BME280;45241;49.768;8.636;2023-01-31T10:17:39;101171.13;;;4.88;96.34
59435;BME280;45241;49.768;8.636;2023-01-31T10:20:33;101166.16;;;4.83;96.44
59435;BME280;45241;49.768;8.636;2023-01-31T10:25:35;101184.00;;;4.92;95.95
59435;BME280;45241;49.768;8.636;2023-01-31T10:28:28;101190.16;;;4.93;95.70
59435;BME280;45241;49.768;8.636;2023-01-31T10:31:02;101192.03;;;4.81;96.71
59435;BME280;45241;49.768;8.636;2023-01-31T10:33:38;101186.91;;;4.89;96.93
59435;BME280;45241;49.768;8.636;2023-01-31T10:36:10;101177.91;;;5.02;95.90
59435;BME280;45241;49.768;8.636;2023-01-31T10:38:47;101182.53;;;5.09;95.25
59435;BME280;45241;49.768;8.636;2023-01-31T10:41:23;101181.38;;;5.02;95.45
59435;BME280;45241;49.768;8.636;2023-01-31T10:44:06;101172.31;;;5.05;96.24
59435;BME280;45241;49.768;8.636;2023-01-31T10:46:37;101174.75;;;5.17;95.37
59435;BME280;45241;49.768;8.636;2023-01-31T10:49:02;101166.50;;;5.20;95.06
59435;BME280;45241;49.768;8.636;2023-01-31T10:52:01;101180.34;;;5.14;95.14
59435;BME280;45241;49.768;8.636;2023-01-31T10:55:25;101164.19;;;5.46;94.08
59435;BME280;45241;49.768;8.636;2023-01-31T10:57:53;101179.56;;;5.33;93.58
59435;BME280;45241;49.768;8.636;2023-01-31T11:00:25;101173.81;;;5.38;93.48
59435;BME280;45241;49.768;8.636;2023-01-31T11:02:51;101147.66;;;5.33;94.20
59435;BME280;45241;49.768;8.636;2023-01-31T11:05:22;101128.47;;;5.39;93.88
59435;BME280;45241;49.768;8.636;2023-01-31T11:07:49;101117.47;;;5.63;92.92
59435;BME280;45241;49.768;8.636;2023-01-31T11:10:29;101112.13;;;5.44;93.39
59435;BME280;45241;49.768;8.636;2023-01-31T11:12:59;101114.09;;;5.42;93.17
59435;BME280;45241;49.768;8.636;2023-01-31T11:15:28;101107.97;;;5.61;92.66
59435;BME280;45241;49.768;8.636;2023-01-31T11:17:59;101094.53;;;5.81;93.04
59435;BME280;45241;49.768;8.636;2023-01-31T11:20:29;101091.44;;;5.86;92.68
59435;BME280;45241;49.768;8.636;2023-01-31T11:22:56;101103.06;;;5.85;92.70
59435;BME280;45241;49.768;8.636;2023-01-31T11:25:24;101093.97;;;5.88;91.94
59435;BME280;45241;49.768;8.636;2023-01-31T11:27:56;101087.53;;;5.80;91.55
59435;BME280;45241;49.768;8.636;2023-01-31T11:30:37;101086.13;;;5.76;92.48
59435;BME280;45241;49.768;8.636;2023-01-31T11:33:04;101083.19;;;5.89;91.23
59435;BME280;45241;49.768;8.636;2023-01-31T11:35:31;101077.16;;;5.87;90.58
59435;BME280;45241;49.768;8.636;2023-01-31T11:40:33;101061.19;;;5.77;91.47
59435;BME280;45241;49.768;8.636;2023-01-31T11:43:01;101064.44;;;5.71;91.56
59435;BME280;45241;49.768;8.636;2023-01-31T11:45:30;101054.34;;;5.65;92.15
59435;BME280;45241;49.768;8.636;2023-01-31T11:47:58;101058.13;;;5.82;91.07
59435;BME280;45241;49.768;8.636;2023-01-31T11:50:42;101055.03;;;5.77;89.99
59435;BME280;45241;49.768;8.636;2023-01-31T11:53:17;101049.44;;;5.70;90.95
59435;BME280;45241;49.768;8.636;2023-01-31T11:55:45;101060.38;;;5.67;91.09
59435;BME280;45241;49.768;8.636;2023-01-31T11:58:21;101059.41;;;5.68;91.34
59435;BME280;45241;49.768;8.636;2023-01-31T12:01:01;101045.78;;;5.52;92.61
59435;BME280;45241;49.768;8.636;2023-01-31T12:03:29;101046.09;;;5.68;92.47
59435;BME280;45241;49.768;8.636;2023-01-31T12:08:41;101025.66;;;5.69;92.18
59435;BME280;45241;49.768;8.636;2023-01-31T12:13:53;101022.69;;;5.81;92.24
59435;BME280;45241;49.768;8.636;2023-01-31T12:16:26;101020.16;;;5.90;91.62
59435;BME280;45241;49.768;8.636;2023-01-31T12:21:50;101023.09;;;5.87;92.00
59435;BME280;45241;49.768;8.636;2023-01-31T12:24:35;101009.66;;;5.78;91.18
59435;BME280;45241;49.768;8.636;2023-01-31T12:27:06;101014.88;;;5.70;91.59
59435;BME280;45241;49.768;8.636;2023-01-31T12:40:28;100946.88;;;6.05;89.87
59435;BME280;45241;49.768;8.636;2023-01-31T12:43:00;100968.19;;;6.05;89.81
59435;BME280;45241;49.768;8.636;2023-01-31T12:45:42;100982.19;;;6.07;88.94
59435;BME280;45241;49.768;8.636;2023-01-31T12:56:08;100928.56;;;5.92;88.99
59435;BME280;45241;49.768;8.636;2023-01-31T12:58:57;100916.47;;;6.07;89.14
59435;BME280;45241;49.768;8.636;2023-01-31T13:04:19;100928.81;;;6.08;89.33
59435;BME280;45241;49.768;8.636;2023-01-31T13:06:56;100927.16;;;5.98;88.39
59435;BME280;45241;49.768;8.636;2023-01-31T13:09:27;100928.06;;;6.16;87.82
59435;BME280;45241;49.768;8.636;2023-01-31T13:12:06;100919.00;;;6.09;87.67
59435;BME280;45241;49.768;8.636;2023-01-31T13:14:39;100919.97;;;6.08;87.51
59435;BME280;45241;49.768;8.636;2023-01-31T13:17:10;100916.84;;;6.22;87.21
59435;BME280;45241;49.768;8.636;2023-01-31T13:19:47;100928.50;;;6.11;87.03
59435;BME280;45241;49.768;8.636;2023-01-31T13:22:19;100918.69;;;6.12;86.72
59435;BME280;45241;49.768;8.636;2023-01-31T13:24:50;100903.41;;;6.14;87.29
59435;BME280;45241;49.768;8.636;2023-01-31T13:30:39;100894.41;;;6.25;86.38
59435;BME280;45241;49.768;8.636;2023-01-31T13:33:22;100888.44;;;6.03;87.24
59435;BME280;45241;49.768;8.636;2023-01-31T13:36:06;100883.78;;;6.15;87.36
59435;BME280;45241;49.768;8.636;2023-01-31T13:38:43;100883.13;;;6.03;88.94
59435;BME280;45241;49.768;8.636;2023-01-31T13:41:17;100876.13;;;6.02;90.41
59435;BME280;45241;49.768;8.636;2023-01-31T13:43:44;100864.28;;;5.87;90.62
59435;BME280;45241;49.768;8.636;2023-01-31T13:46:11;100871.25;;;5.98;90.23
59435;BME280;45241;49.768;8.636;2023-01-31T13:51:33;100885.56;;;5.87;91.87
59435;BME280;45241;49.768;8.636;2023-01-31T13:54:05;100879.44;;;5.77;91.26
59435;BME280;45241;49.768;8.636;2023-01-31T13:56:34;100869.75;;;5.86;91.59
59435;BME280;45241;49.768;8.636;2023-01-31T13:59:00;100873.72;;;5.81;91.78
59435;BME280;45241;49.768;8.636;2023-01-31T14:01:29;100877.13;;;6.01;90.22
59435;BME280;45241;49.768;8.636;2023-01-31T14:09:35;100892.34;;;5.81;91.85
59435;BME280;45241;49.768;8.636;2023-01-31T14:12:28;100889.75;;;5.90;91.58
59435;BME280;45241;49.768;8.636;2023-01-31T14:14:47;100895.53;;;5.85;92.22
59435;BME280;45241;49.768;8.636;2023-01-31T14:20:24;100899.63;;;5.79;91.50
59435;BME280;45241;49.768;8.636;2023-01-31T14:25:49;100903.69;;;5.64;92.14
59435;BME280;45241;49.768;8.636;2023-01-31T14:28:14;100905.34;;;5.84;90.69
59435;BME280;45241;49.768;8.636;2023-01-31T14:30:41;100900.34;;;5.62;92.01
59435;BME280;45241;49.768;8.636;2023-01-31T14:33:16;100909.84;;;5.65;94.63
59435;BME280;45241;49.768;8.636;2023-01-31T14:36:06;100908.63;;;5.59;94.54
59435;BME280;45241;49.768;8.636;2023-01-31T14:38:56;100911.72;;;5.45;97.43
59435;BME280;45241;49.768;8.636;2023-01-31T14:41:54;100904.09;;;5.79;97.01
59435;BME280;45241;49.768;8.636;2023-01-31T14:55:59;100908.38;;;5.14;100.00
59435;BME280;45241;49.768;8.636;2023-01-31T14:58:29;100911.59;;;5.08;100.00
59435;BME280;45241;49.768;8.636;2023-01-31T15:00:58;100912.72;;;5.15;100.00